createdAt,value
2017-12-29T17:03:26.967Z,94588
2017-12-29T17:05:55.081Z,94582
2017-12-29T17:08:23.171Z,94575
2017-12-29T17:10:51.307Z,94567
2017-12-29T17:13:19.468Z,94566
2017-12-29T17:15:47.626Z,94574
2017-12-29T17:18:15.736Z,94568
2017-12-29T17:20:44.485Z,94563
2017-12-29T17:23:12.600Z,94560
2017-12-29T17:25:40.775Z,94562
2017-12-29T17:28:09.246Z,94550
2017-12-29T17:30:37.677Z,94551
2017-12-29T17:33:05.768Z,94555
2017-12-29T17:35:33.874Z,94543
2017-12-29T17:38:02.762Z,94535
2017-12-29T17:40:30.900Z,94541
2017-12-29T17:42:59.085Z,94535
2017-12-29T17:45:27.181Z,94529
2017-12-29T17:47:55.295Z,94525
2017-12-29T17:50:23.397Z,94527
2017-12-29T17:52:51.525Z,94516
2017-12-29T17:55:20.651Z,94511
2017-12-29T17:57:49.075Z,94501
2017-12-29T18:00:17.313Z,94496
2017-12-29T18:02:45.639Z,94500
2017-12-29T18:05:13.797Z,94509
2017-12-29T18:07:41.905Z,94513
2017-12-29T18:10:10.758Z,94515
2017-12-29T18:12:39.223Z,94496
2017-12-29T18:15:07.775Z,94504
2017-12-29T18:17:36.174Z,94505
2017-12-29T18:20:04.438Z,94505
2017-12-29T18:22:32.585Z,94511
2017-12-29T18:25:01.036Z,94520
2017-12-29T18:27:29.546Z,94515
2017-12-29T18:29:57.800Z,94498
2017-12-29T18:32:26.155Z,94517
2017-12-29T18:34:54.472Z,94495
2017-12-29T18:37:22.872Z,94479
2017-12-29T18:39:51.734Z,94462
2017-12-29T18:42:20.529Z,94471
2017-12-29T18:44:49.723Z,94464
2017-12-29T18:47:17.859Z,94465
2017-12-29T18:49:46.218Z,94461
2017-12-29T18:52:14.504Z,94459
2017-12-29T18:54:43.035Z,94446
2017-12-29T18:57:11.838Z,94434
2017-12-29T18:59:39.948Z,94437
2017-12-29T19:02:08.671Z,94428
2017-12-29T19:04:36.980Z,94439
2017-12-29T19:07:05.802Z,94435
2017-12-29T19:09:33.949Z,94428
2017-12-29T19:12:02.158Z,94415
2017-12-29T19:14:30.668Z,94406
2017-12-29T19:17:00.707Z,94386
2017-12-29T19:22:33.907Z,94375
2017-12-29T19:25:02.004Z,94366
2017-12-29T19:27:30.179Z,94344
2017-12-29T19:29:58.560Z,94334
2017-12-29T19:32:26.661Z,94329
2017-12-29T19:34:54.779Z,94320
2017-12-29T19:37:22.899Z,94319
2017-12-29T19:39:51.206Z,94323
2017-12-29T19:42:19.323Z,94320
2017-12-29T19:44:47.474Z,94311
2017-12-29T19:47:15.724Z,94310
2017-12-29T19:49:44.849Z,94308
2017-12-29T19:52:12.953Z,94308
2017-12-29T19:54:42.140Z,94303
2017-12-29T19:57:10.438Z,94305
2017-12-29T19:59:39.221Z,94309
2017-12-29T20:02:07.310Z,94299
2017-12-29T20:04:35.414Z,94290
2017-12-29T20:07:03.510Z,94300
2017-12-29T20:09:31.654Z,94290
2017-12-29T20:12:00.554Z,94293
2017-12-29T20:14:29.647Z,94297
2017-12-29T20:16:57.812Z,94291
2017-12-29T20:19:25.995Z,94288
2017-12-29T20:21:54.110Z,94299
